Time;durP1;ratioP1;P1;durP2;ratioP2;P2;SDS_P1;SDS_P2;PMS_P1;PMS_P2;Temp;Humidity;BMP_temperature;BMP_pressure;BME280_temperature;BME280_humidity;BME280_pressure;Samples;Min_cycle;Max_cycle;Signal;HPM_P1;HPM_P2
2021/10/07 00:02:07;;;;;;;6.70;1.30;;;14.90;76.20;;;;;;5099187;28;20492;-81
2021/10/07 00:04:33;;;;;;;6.70;1.80;;;14.90;76.10;;;;;;5085276;28;20021;-81
2021/10/07 00:06:59;;;;;;;4.78;1.35;;;14.90;76.10;;;;;;5078810;28;20425;-81
2021/10/07 00:09:25;;;;;;;4.55;1.58;;;14.90;76.10;;;;;;5078342;28;20020;-81
2021/10/07 00:11:52;;;;;;;6.75;1.52;;;14.90;76.10;;;;;;5078356;28;20032;-81
2021/10/07 00:14:18;;;;;;;4.82;1.20;;;14.90;76.20;;;;;;5076958;28;20025;-81
2021/10/07 00:16:44;;;;;;;3.30;1.20;;;14.90;76.10;;;;;;5078559;28;20024;-81
2021/10/07 00:19:11;;;;;;;6.30;1.33;;;14.80;76.10;;;;;;5078294;28;20025;-81
2021/10/07 00:21:36;;;;;;;4.35;1.10;;;14.80;76.10;;;;;;5078486;28;20024;-81
2021/10/07 00:24:09;;;;;;;4.35;1.55;;;14.80;76.40;;;;;;5077178;28;20024;-81
2021/10/07 00:26:41;;;;;;;;;;;14.80;76.40;;;;;;5078371;28;20043;-81
2021/10/07 00:31:44;;;;;;;5.68;1.55;;;14.80;76.40;;;;;;5098243;28;20059;-81
2021/10/07 00:37:04;;;;;;;4.78;1.20;;;14.80;76.40;;;;;;5081753;28;20048;-81
2021/10/07 00:39:30;;;;;;;3.22;1.27;;;14.80;76.60;;;;;;5077836;28;20070;-81
2021/10/07 00:41:56;;;;;;;3.15;1.20;;;14.80;76.60;;;;;;5076413;28;20021;-82
2021/10/07 00:44:23;;;;;;;5.40;1.33;;;14.80;76.60;;;;;;5076616;28;20023;-81
2021/10/07 00:46:54;;;;;;;5.55;1.20;;;14.80;76.70;;;;;;5084102;28;20035;-81
2021/10/07 00:49:22;;;;;;;5.95;1.35;;;14.80;76.70;;;;;;5096717;28;20024;-81
2021/10/07 00:51:48;;;;;;;4.38;1.30;;;14.80;76.90;;;;;;5098318;28;20028;-81
2021/10/07 00:54:17;;;;;;;7.10;1.25;;;14.80;76.80;;;;;;5097957;28;20020;-81
2021/10/07 00:56:44;;;;;;;4.57;1.17;;;14.80;76.80;;;;;;5098063;28;20050;-81
2021/10/07 00:59:11;;;;;;;4.13;1.40;;;14.80;76.80;;;;;;5097400;28;20509;-81
2021/10/07 01:01:37;;;;;;;3.50;1.20;;;14.70;76.80;;;;;;5097973;28;20024;-81
2021/10/07 01:04:04;;;;;;;4.93;1.73;;;14.70;76.80;;;;;;5087123;28;20108;-81
2021/10/07 01:06:30;;;;;;;4.90;1.92;;;14.70;77.00;;;;;;5077721;28;20021;-81
2021/10/07 01:08:58;;;;;;;4.90;1.50;;;14.70;76.90;;;;;;5077413;28;20027;-81
2021/10/07 01:11:24;;;;;;;3.90;1.30;;;14.70;76.80;;;;;;5077465;28;20031;-81
2021/10/07 01:13:49;;;;;;;5.38;1.50;;;14.70;76.80;;;;;;5076055;28;20020;-80
2021/10/07 01:16:18;;;;;;;4.13;1.48;;;14.60;76.70;;;;;;5076196;28;20116;-80
2021/10/07 01:18:45;;;;;;;4.15;1.40;;;14.60;77.40;;;;;;5076008;28;20078;-80
2021/10/07 01:21:13;;;;;;;6.57;1.40;;;14.50;76.70;;;;;;5077517;28;20033;-80
2021/10/07 01:23:43;;;;;;;5.47;1.88;;;14.50;76.70;;;;;;5075962;28;20020;-80
2021/10/07 01:26:10;;;;;;;3.15;1.20;;;14.40;76.70;;;;;;5077236;28;20078;-80
2021/10/07 01:28:45;;;;;;;8.95;1.70;;;14.40;76.90;;;;;;5077340;28;20031;-80
2021/10/07 01:31:11;;;;;;;3.60;1.48;;;14.30;76.80;;;;;;5076051;28;20032;-80
2021/10/07 01:33:38;;;;;;;3.85;1.02;;;14.30;76.80;;;;;;5089534;28;20099;-80
2021/10/07 01:36:04;;;;;;;5.03;1.70;;;14.20;76.70;;;;;;5081254;28;20060;-80
2021/10/07 01:38:30;;;;;;;2.85;1.23;;;14.10;76.70;;;;;;5077096;28;20025;-81
2021/10/07 01:40:56;;;;;;;4.57;1.40;;;14.10;76.70;;;;;;5077077;28;20025;-81
2021/10/07 01:43:22;;;;;;;5.03;1.55;;;14.00;76.90;;;;;;5077170;28;20047;-81
2021/10/07 01:45:49;;;;;;;3.97;1.30;;;14.00;77.00;;;;;;5077357;28;20479;-81
2021/10/07 01:48:16;;;;;;;6.15;1.42;;;14.00;77.10;;;;;;5094100;28;20039;-81
2021/10/07 01:50:42;;;;;;;3.50;1.20;;;13.90;77.20;;;;;;5097413;28;20073;-81
2021/10/07 01:53:08;;;;;;;3.58;1.33;;;13.90;77.20;;;;;;5097513;28;20498;-81
2021/10/07 01:55:35;;;;;;;6.35;1.60;;;13.90;77.50;;;;;;5097124;28;20047;-81
2021/10/07 01:58:01;;;;;;;3.30;1.25;;;13.90;77.60;;;;;;5095815;28;20150;-81
2021/10/07 02:00:27;;;;;;;4.15;1.55;;;13.90;77.60;;;;;;5097555;28;20103;-81
2021/10/07 02:02:52;;;;;;;4.10;1.42;;;13.90;77.60;;;;;;5097069;28;20031;-81
2021/10/07 02:05:18;;;;;;;5.97;1.73;;;13.90;77.90;;;;;;5077376;28;20100;-80
2021/10/07 02:07:44;;;;;;;6.43;1.50;;;13.90;78.00;;;;;;5077155;28;20088;-80
2021/10/07 02:10:14;;;;;;;4.43;1.45;;;13.90;78.00;;;;;;5075548;28;20052;-81
2021/10/07 02:12:45;;;;;;;6.40;1.73;;;13.90;78.00;;;;;;5079609;28;20082;-80
2021/10/07 02:15:12;;;;;;;7.03;1.48;;;13.90;78.00;;;;;;5080889;28;20052;-81
2021/10/07 02:17:38;;;;;;;6.38;1.52;;;13.90;78.00;;;;;;5087763;28;20027;-81
2021/10/07 02:20:08;;;;;;;6.03;1.70;;;13.90;78.00;;;;;;5100835;28;20104;-81
2021/10/07 02:22:34;;;;;;;3.72;1.45;;;13.90;78.00;;;;;;5101195;28;20482;-81
2021/10/07 02:25:00;;;;;;;6.88;1.52;;;13.90;78.20;;;;;;5100668;28;20028;-81
2021/10/07 02:27:26;;;;;;;5.07;1.30;;;13.90;78.00;;;;;;5100790;28;20020;-81
2021/10/07 02:29:52;;;;;;;3.72;1.42;;;13.90;78.00;;;;;;5100701;28;20028;-81
2021/10/07 02:32:18;;;;;;;6.90;2.08;;;14.00;78.00;;;;;;5100964;28;20110;-81
2021/10/07 02:34:44;;;;;;;7.00;2.10;;;14.00;78.10;;;;;;5090589;28;20048;-81
2021/10/07 02:37:10;;;;;;;7.10;1.90;;;14.00;78.30;;;;;;5079076;28;20025;-81
2021/10/07 02:39:37;;;;;;;6.53;2.00;;;14.00;78.30;;;;;;5080283;28;20572;-81
2021/10/07 02:42:04;;;;;;;6.32;2.00;;;14.00;78.10;;;;;;5080195;28;20016;-81
2021/10/07 02:44:30;;;;;;;5.03;1.90;;;14.10;78.20;;;;;;5080581;28;20040;-81
2021/10/07 02:46:56;;;;;;;5.60;1.88;;;14.10;78.20;;;;;;5086488;28;20031;-81
2021/10/07 02:49:22;;;;;;;7.30;2.10;;;14.10;78.10;;;;;;5100262;28;20032;-81
2021/10/07 02:51:48;;;;;;;4.20;1.75;;;14.10;78.10;;;;;;5099670;28;20040;-81
2021/10/07 02:54:14;;;;;;;3.75;1.70;;;14.10;78.50;;;;;;5098829;28;20024;-81
2021/10/07 02:56:40;;;;;;;4.70;1.70;;;14.10;78.20;;;;;;5100152;28;20035;-81
2021/10/07 02:59:06;;;;;;;7.82;1.90;;;14.10;78.30;;;;;;5100188;28;20032;-81
2021/10/07 03:01:32;;;;;;;3.88;1.60;;;14.10;78.50;;;;;;5100544;28;20023;-81
2021/10/07 03:03:58;;;;;;;6.20;1.85;;;14.10;78.30;;;;;;5091426;28;20017;-81
2021/10/07 03:06:23;;;;;;;6.70;2.05;;;14.10;78.50;;;;;;5079851;28;20027;-81
2021/10/07 03:08:49;;;;;;;4.18;1.80;;;14.10;78.70;;;;;;5079549;28;20119;-81
2021/10/07 03:11:16;;;;;;;7.15;1.80;;;14.10;79.40;;;;;;5079626;28;20024;-81
2021/10/07 03:13:42;;;;;;;8.20;2.13;;;14.10;78.70;;;;;;5078281;28;20029;-81
2021/10/07 03:16:07;;;;;;;5.72;2.47;;;14.20;78.80;;;;;;5079735;28;20021;-81
2021/10/07 03:18:33;;;;;;;7.53;2.05;;;14.10;78.90;;;;;;5079513;28;20029;-81
2021/10/07 03:20:59;;;;;;;5.72;1.80;;;14.20;79.00;;;;;;5079789;28;20083;-81
2021/10/07 03:23:25;;;;;;;7.13;2.20;;;14.20;78.90;;;;;;5079362;28;20016;-81
2021/10/07 03:25:51;;;;;;;6.88;2.08;;;14.20;78.70;;;;;;5079215;28;20111;-81
2021/10/07 03:28:17;;;;;;;5.43;1.35;;;14.20;78.90;;;;;;5079395;28;20078;-81
2021/10/07 03:30:42;;;;;;;6.13;1.80;;;14.20;78.80;;;;;;5078208;28;20078;-81
2021/10/07 03:33:09;;;;;;;5.03;1.70;;;14.20;78.90;;;;;;5090799;28;20024;-81
2021/10/07 03:35:36;;;;;;;8.43;1.85;;;14.20;79.00;;;;;;5083827;28;20411;-81
2021/10/07 03:38:03;;;;;;;6.50;1.80;;;14.20;79.10;;;;;;5079442;28;20040;-81
2021/10/07 03:40:29;;;;;;;4.65;1.60;;;14.20;79.00;;;;;;5079011;28;20021;-81
2021/10/07 03:42:56;;;;;;;7.18;2.28;;;14.20;79.00;;;;;;5079051;28;20493;-81
2021/10/07 03:45:22;;;;;;;4.05;1.80;;;14.30;79.00;;;;;;5079236;28;20013;-81
2021/10/07 03:47:48;;;;;;;5.45;1.90;;;14.30;79.10;;;;;;5078868;28;20066;-81
2021/10/07 03:50:14;;;;;;;5.43;1.63;;;14.30;79.10;;;;;;5079145;28;20021;-81
2021/10/07 03:52:40;;;;;;;5.95;1.70;;;14.30;79.10;;;;;;5078835;28;20514;-81
2021/10/07 03:55:06;;;;;;;6.03;1.80;;;14.30;79.20;;;;;;5079048;28;20107;-81
2021/10/07 03:57:32;;;;;;;6.13;1.65;;;14.30;79.20;;;;;;5078556;28;20028;-81
2021/10/07 03:59:58;;;;;;;6.18;2.00;;;14.30;79.40;;;;;;5078959;28;20122;-82
2021/10/07 04:02:23;;;;;;;5.05;2.15;;;14.30;79.70;;;;;;5078547;28;20475;-81
2021/10/07 04:04:50;;;;;;;6.03;2.30;;;14.30;80.50;;;;;;5078719;28;20024;-81
2021/10/07 04:07:17;;;;;;;7.47;2.20;;;14.30;80.90;;;;;;5077542;28;20120;-81
2021/10/07 04:09:43;;;;;;;8.80;2.67;;;14.30;81.10;;;;;;5078635;28;20046;-81
2021/10/07 04:12:09;;;;;;;9.57;2.10;;;14.20;80.80;;;;;;5078127;28;20479;-81
2021/10/07 04:14:35;;;;;;;5.95;2.08;;;14.30;81.50;;;;;;5077223;28;20139;-80
2021/10/07 04:17:01;;;;;;;11.13;1.90;;;14.20;81.50;;;;;;5078342;28;20051;-80
2021/10/07 04:19:27;;;;;;;8.35;2.05;;;14.20;81.40;;;;;;5078661;28;20021;-81
2021/10/07 04:21:53;;;;;;;6.10;2.25;;;14.20;82.00;;;;;;5078490;28;20028;-81
2021/10/07 04:24:18;;;;;;;8.38;2.20;;;14.20;82.30;;;;;;5076911;28;20025;-80
2021/10/07 04:26:44;;;;;;;5.38;2.13;;;14.20;82.20;;;;;;5077884;28;20104;-81
2021/10/07 04:29:11;;;;;;;6.88;1.95;;;14.10;82.20;;;;;;5078528;28;20020;-81
2021/10/07 04:31:38;;;;;;;10.05;2.15;;;14.10;82.70;;;;;;5078001;28;20025;-80
2021/10/07 04:34:06;;;;;;;7.70;2.22;;;14.10;82.20;;;;;;5088997;28;20024;-79
2021/10/07 04:36:33;;;;;;;7.57;2.00;;;14.10;82.50;;;;;;5080882;28;20083;-78
2021/10/07 04:38:59;;;;;;;9.90;2.58;;;14.10;81.90;;;;;;5077996;28;20103;-73
2021/10/07 04:41:24;;;;;;;4.68;1.90;;;14.10;82.00;;;;;;5077633;28;20043;-76
2021/10/07 04:43:50;;;;;;;5.70;2.00;;;14.10;81.70;;;;;;5078072;28;20422;-75
2021/10/07 04:46:18;;;;;;;6.22;2.20;;;14.10;82.10;;;;;;5079635;28;20017;-76
2021/10/07 04:48:44;;;;;;;6.25;1.92;;;14.10;82.20;;;;;;5098456;28;20028;-76
2021/10/07 04:51:10;;;;;;;11.05;2.50;;;14.10;82.30;;;;;;5098114;28;20039;-75
2021/10/07 04:53:36;;;;;;;8.65;2.13;;;14.10;82.70;;;;;;5098078;28;20020;-79
2021/10/07 04:56:03;;;;;;;6.22;1.90;;;14.10;82.80;;;;;;5096645;28;20570;-82
2021/10/07 04:58:29;;;;;;;6.30;2.13;;;14.10;82.20;;;;;;5098059;28;20486;-80
2021/10/07 05:00:55;;;;;;;8.50;2.00;;;14.10;82.30;;;;;;5097906;28;20106;-80
2021/10/07 05:03:20;;;;;;;8.93;2.00;;;14.00;82.20;;;;;;5093121;28;20053;-80
2021/10/07 05:05:46;;;;;;;9.13;1.92;;;14.10;82.00;;;;;;5077516;28;20020;-79
2021/10/07 05:08:12;;;;;;;6.70;2.20;;;14.10;82.00;;;;;;5077656;28;20162;-83
2021/10/07 05:10:39;;;;;;;6.03;1.88;;;14.10;81.70;;;;;;5077153;28;20036;-79
2021/10/07 05:13:05;;;;;;;7.47;2.17;;;14.10;82.10;;;;;;5077695;28;20028;-76
2021/10/07 05:15:31;;;;;;;7.43;2.22;;;14.10;82.40;;;;;;5077041;28;20047;-76
2021/10/07 05:17:57;;;;;;;8.90;2.17;;;14.10;82.80;;;;;;5076186;28;20033;-77
2021/10/07 05:20:23;;;;;;;6.75;2.40;;;14.10;82.50;;;;;;5074918;28;20029;-77
2021/10/07 05:22:49;;;;;;;8.25;2.33;;;14.10;82.50;;;;;;5077161;28;20044;-80
2021/10/07 05:25:15;;;;;;;7.53;2.00;;;14.10;82.30;;;;;;5075793;28;20028;-79
2021/10/07 05:27:41;;;;;;;10.93;2.75;;;14.10;82.80;;;;;;5075867;28;20021;-78
2021/10/07 05:30:08;;;;;;;5.85;2.00;;;14.20;82.30;;;;;;5077370;28;20142;-74
2021/10/07 05:32:34;;;;;;;10.75;2.42;;;14.10;81.90;;;;;;5083696;28;20035;-74
2021/10/07 05:35:00;;;;;;;6.47;2.40;;;14.10;81.70;;;;;;5086432;28;20043;-74
2021/10/07 05:37:27;;;;;;;6.28;1.67;;;14.10;81.90;;;;;;5076026;28;20513;-74
2021/10/07 05:39:54;;;;;;;8.05;2.15;;;14.20;81.50;;;;;;5075745;28;20077;-74
2021/10/07 05:42:19;;;;;;;8.65;2.30;;;14.20;81.70;;;;;;5076994;28;20093;-75
2021/10/07 05:44:45;;;;;;;4.60;2.05;;;14.20;81.60;;;;;;5077189;28;20033;-74
2021/10/07 05:47:11;;;;;;;8.70;2.22;;;14.20;81.40;;;;;;5088043;28;20021;-74
2021/10/07 05:49:37;;;;;;;5.07;1.50;;;14.20;81.70;;;;;;5101823;28;20087;-75
2021/10/07 05:52:04;;;;;;;4.80;1.77;;;14.20;81.40;;;;;;5100283;28;20028;-75
2021/10/07 05:54:30;;;;;;;10.70;1.98;;;14.20;81.30;;;;;;5101361;28;20458;-75
2021/10/07 05:56:57;;;;;;;8.75;2.10;;;14.20;81.70;;;;;;5101419;28;20024;-74
2021/10/07 05:59:23;;;;;;;6.57;1.90;;;14.20;81.40;;;;;;5101195;28;20526;-73
2021/10/07 06:01:49;;;;;;;6.47;2.08;;;14.20;81.60;;;;;;5101466;28;20102;-73
2021/10/07 06:04:15;;;;;;;20.67;12.15;;;14.20;82.10;;;;;;5090174;28;20024;-74
2021/10/07 06:06:41;;;;;;;16.95;9.50;;;14.20;82.00;;;;;;5081019;28;20028;-74
2021/10/07 06:09:07;;;;;;;10.88;5.88;;;14.20;81.80;;;;;;5080794;28;20510;-75
2021/10/07 06:11:36;;;;;;;11.60;4.63;;;14.20;82.00;;;;;;5080767;28;20130;-74
2021/10/07 06:14:03;;;;;;;7.97;3.17;;;14.20;81.70;;;;;;5080692;28;20024;-74
2021/10/07 06:16:32;;;;;;;6.05;2.80;;;14.20;82.00;;;;;;5080910;28;20020;-74
2021/10/07 06:18:58;;;;;;;5.90;2.50;;;14.20;81.80;;;;;;5080536;28;20049;-74
2021/10/07 06:21:24;;;;;;;7.80;2.92;;;14.20;81.40;;;;;;5080903;28;20021;-74
2021/10/07 06:23:50;;;;;;;6.30;2.05;;;14.20;81.30;;;;;;5080448;28;20032;-75
2021/10/07 06:26:16;;;;;;;7.80;2.30;;;14.20;81.20;;;;;;5079073;28;20175;-75
2021/10/07 06:28:42;;;;;;;6.78;2.17;;;14.20;81.30;;;;;;5080502;28;20029;-75
2021/10/07 06:31:07;;;;;;;5.82;2.08;;;14.30;81.30;;;;;;5080383;28;20028;-75
2021/10/07 06:33:33;;;;;;;6.38;1.90;;;14.30;81.10;;;;;;5092671;28;20035;-75
2021/10/07 06:35:59;;;;;;;6.70;2.03;;;14.30;81.20;;;;;;5085808;28;20141;-75
2021/10/07 06:38:26;;;;;;;5.85;1.75;;;14.20;81.20;;;;;;5080210;28;20155;-75
2021/10/07 06:40:52;;;;;;;7.50;2.10;;;14.30;81.30;;;;;;5080122;28;20379;-75
2021/10/07 06:43:18;;;;;;;4.78;1.80;;;14.30;81.40;;;;;;5080240;28;20457;-75
2021/10/07 06:45:44;;;;;;;6.53;2.03;;;14.30;81.50;;;;;;5080491;28;20024;-75
2021/10/07 06:48:10;;;;;;;6.35;2.13;;;14.30;81.20;;;;;;5097744;28;20028;-75
2021/10/07 06:50:40;;;;;;;8.00;2.47;;;14.30;81.20;;;;;;5100684;28;20016;-75
2021/10/07 06:53:07;;;;;;;5.68;1.90;;;14.30;81.30;;;;;;5100537;28;20025;-75
2021/10/07 06:55:34;;;;;;;8.68;2.10;;;14.30;81.40;;;;;;5100187;28;20096;-75
2021/10/07 06:58:00;;;;;;;6.63;1.95;;;14.40;81.60;;;;;;5099481;28;20033;-75
2021/10/07 07:00:26;;;;;;;6.55;2.20;;;14.40;81.70;;;;;;5100399;28;20029;-75
2021/10/07 07:02:55;;;;;;;8.43;2.40;;;14.40;81.60;;;;;;5100381;28;20035;-75
2021/10/07 07:05:22;;;;;;;9.48;2.50;;;14.40;81.60;;;;;;5079989;28;20023;-75
2021/10/07 07:07:48;;;;;;;12.82;3.05;;;14.50;82.20;;;;;;5079783;28;20017;-75
2021/10/07 07:10:19;;;;;;;8.02;2.90;;;14.50;82.40;;;;;;5079488;28;20028;-75
2021/10/07 07:12:50;;;;;;;5.97;2.97;;;14.60;82.90;;;;;;5079861;28;20057;-75
2021/10/07 07:15:16;;;;;;;7.70;2.63;;;14.60;83.20;;;;;;5080081;28;20025;-75
2021/10/07 07:17:42;;;;;;;7.63;2.45;;;14.60;82.60;;;;;;5079572;28;20486;-75
2021/10/07 07:20:09;;;;;;;6.30;2.22;;;14.60;82.40;;;;;;5079603;28;20032;-75
2021/10/07 07:22:36;;;;;;;9.38;2.58;;;14.70;82.10;;;;;;5078297;28;20430;-75
2021/10/07 07:25:03;;;;;;;7.85;2.25;;;14.70;82.30;;;;;;5079621;28;20020;-75
2021/10/07 07:27:29;;;;;;;6.35;2.42;;;14.70;82.30;;;;;;5079308;28;20051;-75
2021/10/07 07:29:55;;;;;;;9.68;2.75;;;14.80;82.40;;;;;;5079667;28;20020;-75
2021/10/07 07:32:21;;;;;;;6.18;2.40;;;14.80;82.60;;;;;;5085381;28;20056;-74
2021/10/07 07:34:47;;;;;;;7.60;3.08;;;14.90;82.60;;;;;;5092204;28;20068;-75
2021/10/07 07:37:14;;;;;;;8.80;2.60;;;15.00;82.60;;;;;;5079908;28;20070;-75
2021/10/07 07:39:40;;;;;;;5.95;2.70;;;15.10;82.80;;;;;;5079007;28;20131;-75
2021/10/07 07:42:07;;;;;;;8.13;2.78;;;15.30;82.90;;;;;;5078892;28;20392;-75
2021/10/07 07:44:35;;;;;;;10.20;2.70;;;15.40;83.00;;;;;;5079342;28;20020;-75
2021/10/07 07:47:01;;;;;;;11.90;2.80;;;15.50;83.10;;;;;;5087202;28;20020;-75
2021/10/07 07:49:26;;;;;;;8.20;3.03;;;15.60;83.10;;;;;;5099202;28;20028;-75
2021/10/07 07:51:52;;;;;;;7.95;2.80;;;15.70;82.80;;;;;;5099580;28;20028;-75
2021/10/07 07:54:18;;;;;;;10.40;3.17;;;15.80;82.70;;;;;;5098844;28;20016;-75
2021/10/07 07:56:44;;;;;;;7.88;2.67;;;15.90;82.80;;;;;;5099054;28;20028;-75
2021/10/07 07:59:10;;;;;;;6.15;2.50;;;16.00;82.70;;;;;;5098841;28;20024;-74
2021/10/07 08:01:37;;;;;;;7.20;2.95;;;16.00;82.60;;;;;;5099310;28;20032;-75
2021/10/07 08:04:06;;;;;;;8.20;2.65;;;16.10;82.40;;;;;;5089407;28;20047;-75
2021/10/07 08:06:32;;;;;;;5.85;3.05;;;16.10;82.30;;;;;;5078833;28;20082;-75
2021/10/07 08:08:59;;;;;;;7.18;2.55;;;16.20;82.50;;;;;;5077513;28;20025;-75
2021/10/07 08:11:25;;;;;;;10.95;3.95;;;16.20;82.40;;;;;;5078220;28;20036;-75
2021/10/07 08:13:50;;;;;;;13.20;6.53;;;16.30;82.50;;;;;;5078266;28;20025;-75
2021/10/07 08:16:16;;;;;;;25.88;11.00;;;16.30;82.50;;;;;;5078783;28;20471;-75
2021/10/07 08:18:42;;;;;;;27.50;13.13;;;16.40;82.60;;;;;;5078205;28;20063;-74
2021/10/07 08:21:08;;;;;;;28.08;12.60;;;16.40;82.40;;;;;;5078518;28;20025;-75
2021/10/07 08:23:36;;;;;;;33.13;15.15;;;16.40;82.40;;;;;;5078565;28;20070;-75
2021/10/07 08:26:03;;;;;;;26.73;12.57;;;16.40;82.40;;;;;;5077946;28;20382;-75
2021/10/07 08:28:29;;;;;;;24.02;11.25;;;16.50;82.20;;;;;;5078147;28;20024;-75
2021/10/07 08:30:55;;;;;;;20.30;9.95;;;16.50;82.20;;;;;;5078788;28;20034;-75
2021/10/07 08:33:21;;;;;;;19.23;8.70;;;16.50;82.10;;;;;;5090112;28;20024;-75
2021/10/07 08:35:49;;;;;;;19.05;9.18;;;16.50;82.10;;;;;;5083174;28;20104;-74
2021/10/07 08:38:17;;;;;;;20.65;7.53;;;16.60;82.80;;;;;;5077802;28;20024;-75
2021/10/07 08:40:44;;;;;;;25.10;8.40;;;16.60;82.20;;;;;;5077732;28;20536;-75
2021/10/07 08:43:10;;;;;;;20.50;7.95;;;16.60;82.20;;;;;;5077747;28;20099;-75
2021/10/07 08:45:36;;;;;;;16.27;7.32;;;16.80;82.90;;;;;;5077922;28;20393;-75
2021/10/07 08:48:02;;;;;;;14.38;6.70;;;16.80;82.70;;;;;;5093061;28;20020;-75
2021/10/07 08:50:28;;;;;;;12.50;6.18;;;17.00;82.90;;;;;;5098580;28;20390;-74
2021/10/07 08:52:53;;;;;;;15.23;6.00;;;17.10;83.00;;;;;;5097984;28;20052;-75
2021/10/07 08:55:20;;;;;;;15.88;6.80;;;17.20;83.10;;;;;;5097911;28;20024;-75
2021/10/07 08:57:46;;;;;;;14.07;5.85;;;17.30;83.20;;;;;;5098043;28;20027;-75
2021/10/07 09:00:14;;;;;;;11.13;6.57;;;17.50;83.20;;;;;;5098170;28;20028;-75
2021/10/07 09:02:40;;;;;;;15.35;6.10;;;17.60;83.00;;;;;;5098171;28;20016;-75
2021/10/07 09:05:08;;;;;;;12.68;4.90;;;17.70;82.70;;;;;;5079731;28;20024;-75
2021/10/07 09:07:51;;;;;;;12.05;4.15;;;17.80;82.60;;;;;;5077823;28;20021;-75
2021/10/07 09:10:16;;;;;;;;;;;17.80;82.40;;;;;;5077927;28;20040;-75
2021/10/07 09:13:06;;;;;;;5.07;2.45;;;17.90;82.00;;;;;;5077456;28;19905;-75
2021/10/07 09:15:32;;;;;;;5.38;1.92;;;17.80;81.70;;;;;;5077689;28;20031;-75
2021/10/07 09:18:08;;;;;;;6.25;1.80;;;17.90;81.50;;;;;;5077543;28;20051;-74
2021/10/07 09:20:41;;;;;;;5.00;1.90;;;17.80;82.10;;;;;;5077195;28;20050;-75
2021/10/07 09:23:09;;;;;;;5.63;2.13;;;17.90;81.40;;;;;;5076194;28;20039;-75
2021/10/07 09:26:14;;;;;;;6.53;2.10;;;17.80;81.00;;;;;;5077021;28;20074;-75
2021/10/07 09:29:00;;;;;;;5.85;1.80;;;17.70;81.00;;;;;;5076943;28;20040;-75
2021/10/07 09:31:28;;;;;;;4.82;2.10;;;17.70;81.00;;;;;;5077665;28;20021;-75
2021/10/07 09:33:58;;;;;;;5.75;1.90;;;17.80;81.10;;;;;;5089121;28;20056;-75
2021/10/07 09:36:24;;;;;;;7.80;2.33;;;17.80;81.30;;;;;;5081716;28;20099;-75
2021/10/07 09:38:52;;;;;;;8.48;3.92;;;17.80;81.40;;;;;;5077317;28;20066;-74
2021/10/07 09:41:21;;;;;;;9.10;3.45;;;17.90;82.40;;;;;;5077219;28;20035;-75
2021/10/07 09:43:52;;;;;;;8.48;2.80;;;18.00;82.00;;;;;;5077473;28;20021;-75
2021/10/07 09:46:48;;;;;;;9.65;2.90;;;18.10;82.20;;;;;;5078957;28;20043;-75
2021/10/07 09:49:32;;;;;;;5.90;2.42;;;18.10;81.70;;;;;;5081413;28;20075;-75
2021/10/07 09:51:58;;;;;;;4.68;2.35;;;18.10;81.50;;;;;;5097587;28;20040;-75
2021/10/07 09:54:30;;;;;;;7.60;2.20;;;18.20;81.40;;;;;;5097165;28;20050;-74
2021/10/07 09:56:58;;;;;;;6.57;2.20;;;18.20;81.40;;;;;;5097217;28;20020;-75
2021/10/07 09:59:25;;;;;;;6.00;2.10;;;18.20;81.10;;;;;;5097335;28;20032;-75
2021/10/07 10:01:54;;;;;;;7.60;2.03;;;18.20;81.10;;;;;;5097436;28;20547;-75
2021/10/07 10:04:20;;;;;;;8.50;2.58;;;18.20;81.10;;;;;;5085617;28;20032;-75
2021/10/07 10:06:46;;;;;;;5.43;1.75;;;18.30;81.10;;;;;;5077194;28;20032;-75
2021/10/07 10:09:12;;;;;;;5.35;2.38;;;18.30;81.20;;;;;;5076798;28;20029;-75
2021/10/07 10:11:42;;;;;;;7.28;2.50;;;18.40;81.20;;;;;;5076909;28;20028;-75
2021/10/07 10:14:09;;;;;;;5.15;2.83;;;18.40;81.10;;;;;;5076746;28;20048;-75
2021/10/07 10:16:38;;;;;;;6.72;2.53;;;18.40;81.20;;;;;;5076995;28;20078;-75
2021/10/07 10:19:07;;;;;;;5.72;2.35;;;18.50;81.20;;;;;;5076666;28;20028;-75
2021/10/07 10:21:39;;;;;;;4.72;2.03;;;18.50;81.20;;;;;;5076897;28;20027;-75
2021/10/07 10:24:08;;;;;;;4.68;2.17;;;18.60;81.00;;;;;;5075448;28;20017;-75
2021/10/07 10:26:38;;;;;;;6.97;2.63;;;18.60;80.90;;;;;;5076671;28;20020;-75
2021/10/07 10:29:18;;;;;;;6.63;2.47;;;18.60;80.60;;;;;;5076934;28;20025;-75
2021/10/07 10:31:43;;;;;;;4.93;2.00;;;18.60;80.30;;;;;;5077497;28;20029;-75
2021/10/07 10:34:15;;;;;;;6.68;2.15;;;18.60;80.00;;;;;;5092794;28;20021;-75
2021/10/07 10:36:45;;;;;;;5.82;2.35;;;18.60;79.90;;;;;;5084867;28;20040;-75
2021/10/07 10:39:28;;;;;;;5.13;2.30;;;18.50;79.90;;;;;;5080352;28;20024;-75
2021/10/07 10:41:58;;;;;;;5.72;1.95;;;18.50;80.50;;;;;;5079881;28;20017;-75
2021/10/07 10:44:27;;;;;;;6.22;2.10;;;18.50;80.20;;;;;;5080463;28;20033;-75
2021/10/07 10:47:06;;;;;;;5.82;1.70;;;18.40;80.70;;;;;;5085778;28;20050;-75
2021/10/07 10:49:53;;;;;;;3.95;1.67;;;18.40;80.00;;;;;;5100273;28;20056;-75
2021/10/07 10:52:23;;;;;;;4.80;1.92;;;18.40;80.10;;;;;;5100562;28;20466;-75
2021/10/07 10:54:56;;;;;;;3.45;1.30;;;18.40;80.10;;;;;;5100167;28;20055;-75
2021/10/07 10:57:36;;;;;;;5.47;2.40;;;18.50;80.30;;;;;;5100111;28;20039;-75
2021/10/07 11:00:08;;;;;;;4.35;1.60;;;18.50;80.30;;;;;;5100468;28;20028;-75
2021/10/07 11:02:35;;;;;;;3.67;1.50;;;18.50;80.30;;;;;;5100240;28;20073;-75
2021/10/07 11:05:19;;;;;;;5.05;1.70;;;18.60;80.20;;;;;;5082734;28;20390;-75
2021/10/07 11:07:47;;;;;;;4.85;1.92;;;18.60;80.20;;;;;;5080023;28;20016;-75
2021/10/07 11:10:28;;;;;;;4.93;1.98;;;18.60;80.10;;;;;;5079483;28;20052;-75
2021/10/07 11:12:58;;;;;;;3.90;1.92;;;18.70;80.10;;;;;;5087334;28;20024;-75
2021/10/07 11:15:27;;;;;;;4.65;1.75;;;18.80;80.10;;;;;;5099861;28;20066;-75
2021/10/07 11:17:54;;;;;;;5.07;1.90;;;18.80;80.00;;;;;;5100069;28;20501;-75
2021/10/07 11:20:30;;;;;;;3.95;1.92;;;18.80;79.90;;;;;;5099860;28;20028;-75
2021/10/07 11:23:00;;;;;;;4.30;1.70;;;18.70;79.80;;;;;;5099903;28;20013;-75
2021/10/07 11:25:27;;;;;;;4.78;2.13;;;18.80;79.90;;;;;;5099569;28;20028;-75
2021/10/07 11:27:53;;;;;;;7.40;3.08;;;18.90;80.00;;;;;;5099934;28;20016;-75
2021/10/07 11:30:22;;;;;;;4.32;1.88;;;18.90;80.00;;;;;;5099585;28;20126;-75
2021/10/07 11:32:50;;;;;;;5.45;2.25;;;18.90;79.90;;;;;;5099865;28;20091;-75
2021/10/07 11:35:19;;;;;;;5.20;1.88;;;18.90;80.00;;;;;;5085951;28;20059;-75
2021/10/07 11:37:58;;;;;;;5.30;2.55;;;18.90;80.10;;;;;;5079508;28;20070;-75
2021/10/07 11:40:51;;;;;;;6.00;2.95;;;18.90;80.10;;;;;;5086317;28;20031;-75
2021/10/07 11:43:23;;;;;;;7.22;2.58;;;18.90;80.10;;;;;;5099247;28;20427;-75
2021/10/07 11:45:54;;;;;;;5.22;2.17;;;18.90;80.00;;;;;;5099807;28;20051;-75
2021/10/07 11:48:22;;;;;;;5.53;2.25;;;18.90;80.10;;;;;;5099165;28;20051;-75
2021/10/07 11:51:06;;;;;;;6.88;2.13;;;18.90;80.00;;;;;;5098053;28;20054;-75
2021/10/07 11:53:43;;;;;;;4.88;2.25;;;18.90;80.00;;;;;;5099344;28;20023;-75
2021/10/07 11:56:12;;;;;;;5.60;1.90;;;18.90;80.10;;;;;;5098983;28;20386;-75
2021/10/07 11:58:38;;;;;;;5.47;1.73;;;19.00;80.20;;;;;;5099266;28;20024;-75
2021/10/07 12:01:04;;;;;;;3.10;1.80;;;19.00;80.20;;;;;;5099258;28;20024;-75
2021/10/07 12:03:32;;;;;;;3.08;1.40;;;19.10;80.20;;;;;;5094481;28;20024;-75
2021/10/07 12:06:05;;;;;;;3.58;1.30;;;19.20;80.10;;;;;;5078693;28;20476;-75
2021/10/07 12:08:40;;;;;;;3.38;1.25;;;19.20;79.90;;;;;;5077324;28;20054;-75
2021/10/07 12:11:10;;;;;;;2.20;1.20;;;19.30;79.40;;;;;;5078297;28;20483;-75
2021/10/07 12:13:38;;;;;;;3.78;1.80;;;19.40;79.10;;;;;;5078644;28;20428;-75
2021/10/07 12:16:13;;;;;;;5.00;2.70;;;19.40;79.20;;;;;;5085917;28;20020;-75
2021/10/07 12:18:42;;;;;;;5.60;3.28;;;19.50;79.30;;;;;;5098805;28;20111;-75
2021/10/07 12:21:10;;;;;;;4.35;2.38;;;19.50;79.30;;;;;;5099037;28;20074;-75
2021/10/07 12:23:50;;;;;;;5.72;2.75;;;19.50;79.20;;;;;;5098505;28;20047;-75
2021/10/07 12:26:24;;;;;;;5.60;2.47;;;19.50;79.00;;;;;;5098545;28;20024;-75
2021/10/07 12:28:51;;;;;;;5.70;2.70;;;19.50;78.60;;;;;;5098820;28;20027;-74
2021/10/07 12:31:23;;;;;;;7.32;2.50;;;19.50;78.60;;;;;;5098781;28;20053;-75
2021/10/07 12:34:04;;;;;;;6.22;2.45;;;19.50;78.70;;;;;;5092453;28;20154;-75
2021/10/07 12:36:43;;;;;;;4.50;2.53;;;19.50;78.80;;;;;;5082905;28;20135;-75
2021/10/07 12:39:33;;;;;;;5.65;2.28;;;19.40;78.80;;;;;;5077951;28;20084;-75
2021/10/07 12:42:06;;;;;;;6.22;2.85;;;19.40;78.70;;;;;;5077724;28;20017;-75
2021/10/07 12:44:36;;;;;;;6.38;2.83;;;19.50;78.70;;;;;;5078165;28;20158;-75
2021/10/07 12:47:07;;;;;;;7.95;2.95;;;19.40;78.40;;;;;;5086153;28;20470;-75
2021/10/07 12:49:44;;;;;;;6.10;2.83;;;19.40;78.50;;;;;;5098192;28;20382;-75
2021/10/07 12:52:15;;;;;;;6.32;2.72;;;19.40;78.60;;;;;;5098393;28;20098;-75
2021/10/07 12:54:41;;;;;;;5.60;2.55;;;19.40;78.70;;;;;;5097502;28;20439;-75
2021/10/07 12:57:08;;;;;;;5.63;2.33;;;19.40;78.60;;;;;;5098060;28;20020;-75